Accueil
METAR-TAF:

METAR-TAF

Aéroports :

Aéroport international de Pohnpei

Ponape, Micronésie

latitude: 06-59N, longitude: 158-12E, altitude: 2 m

Observation

Le bulletin a été fait il y a 12 heures et 12 minutes, à 03:50 UTC
Vent 10 kt de est/sud-est
Température 31°C
Humidité 71%
Pression 1008 hPa
Visibilité: 24.1 km
Nuages épars à une hauteur de 1800 ft, Cumulus congestus.
Nuages fragmentés à une hauteur de 13000 ft
Ciel couvert à une hauteur de 30000 ft

METAR: PTPN 220350Z 11010KT 15SM SCT018TCU BKN130 OVC300 31/25 A2977 RMK TCU SE LAST

Heure: 03:02 (16:02 UTC)

Prévision

Le bulletin a été fait il y a 16 heures et 42 minutes, à 23:20 UTC
Prévision valable du 22 à 00 UTC au 22 à 24 UTC
Vent 11 kt de est
Visibilité: 10 km
Nuages épars à une hauteur de 1800 ft

TAF: PTPN 212320Z 2200/2224 08011KT P6SM SCT018

Observations et prévisions météorologiques de plus de 4000 aéroports (messages METAR et TAF).

Les stations disponibles sont représentées par des disques jaunes et rouges sur la carte.

Passer la souris dessus pour voir le nom de la station.

Cliquer dessus pour voir les observations et prévisions météorologiques.

Pour changer de carte: cliquez sur les boutons verts avec une croix noire pour zoomer, sur le bouton vert avec un tiret pour effectuer un zoom arrière, ou sur les flèches vertes pour les cartes adjacentes.


METAR-TAF: